sensor_id;sensor_type;location;lat;lon;timestamp;pressure;altitude;pressure_sealevel;temperature;humidity
83152;BME280;73381;58.502;8.624;2024-02-15T00:05:21;100320.25;;;0.32;86.83
83152;BME280;73381;58.502;8.624;2024-02-15T00:08:23;100321.88;;;0.34;86.89
83152;BME280;73381;58.502;8.624;2024-02-15T00:11:43;100317.66;;;0.32;86.56
83152;BME280;73381;58.502;8.624;2024-02-15T00:15:05;100308.44;;;0.23;87.12
83152;BME280;73381;58.502;8.624;2024-02-15T00:21:49;100306.81;;;0.20;87.00
83152;BME280;73381;58.502;8.624;2024-02-15T00:25:01;100325.25;;;0.36;87.07
83152;BME280;73381;58.502;8.624;2024-02-15T00:28:03;100320.00;;;0.38;86.73
83152;BME280;73381;58.502;8.624;2024-02-15T00:34:16;100321.75;;;0.37;86.69
83152;BME280;73381;58.502;8.624;2024-02-15T00:37:23;100331.31;;;0.37;87.22
83152;BME280;73381;58.502;8.624;2024-02-15T00:40:24;100336.31;;;0.41;86.52
83152;BME280;73381;58.502;8.624;2024-02-15T00:43:27;100347.75;;;0.37;86.31
83152;BME280;73381;58.502;8.624;2024-02-15T00:46:31;100321.75;;;0.37;86.38
83152;BME280;73381;58.502;8.624;2024-02-15T00:49:37;100297.94;;;0.26;86.75
83152;BME280;73381;58.502;8.624;2024-02-15T00:52:42;100338.13;;;0.39;87.05
83152;BME280;73381;58.502;8.624;2024-02-15T00:55:44;100326.78;;;0.42;86.63
83152;BME280;73381;58.502;8.624;2024-02-15T00:58:51;100310.81;;;0.29;86.50
83152;BME280;73381;58.502;8.624;2024-02-15T01:05:00;100328.09;;;0.30;86.56
83152;BME280;73381;58.502;8.624;2024-02-15T01:08:18;100291.69;;;0.08;86.63
83152;BME280;73381;58.502;8.624;2024-02-15T01:11:29;100338.63;;;0.25;86.86
83152;BME280;73381;58.502;8.624;2024-02-15T01:14:30;100323.69;;;0.32;85.96
83152;BME280;73381;58.502;8.624;2024-02-15T01:17:32;100335.97;;;0.28;87.14
83152;BME280;73381;58.502;8.624;2024-02-15T01:20:34;100311.88;;;0.23;86.07
83152;BME280;73381;58.502;8.624;2024-02-15T01:23:37;100301.69;;;0.19;87.17
83152;BME280;73381;58.502;8.624;2024-02-15T01:26:40;100316.16;;;0.24;86.66
83152;BME280;73381;58.502;8.624;2024-02-15T01:29:41;100215.06;;;-0.50;86.22
83152;BME280;73381;58.502;8.624;2024-02-15T01:32:43;100319.72;;;0.22;86.90
83152;BME280;73381;58.502;8.624;2024-02-15T01:35:45;100321.59;;;0.18;87.21
83152;BME280;73381;58.502;8.624;2024-02-15T01:38:49;100312.31;;;0.11;86.81
83152;BME280;73381;58.502;8.624;2024-02-15T01:41:51;100299.41;;;-0.14;86.54
83152;BME280;73381;58.502;8.624;2024-02-15T01:44:53;100147.06;;;-1.07;87.02
83152;BME280;73381;58.502;8.624;2024-02-15T01:47:55;100324.53;;;0.09;86.84
83152;BME280;73381;58.502;8.624;2024-02-15T01:50:57;100312.44;;;0.08;87.07
83152;BME280;73381;58.502;8.624;2024-02-15T01:54:01;100270.38;;;-0.25;87.77
83152;BME280;73381;58.502;8.624;2024-02-15T01:57:04;100335.34;;;-0.03;87.76
83152;BME280;73381;58.502;8.624;2024-02-15T02:00:07;100312.75;;;-0.01;87.98
83152;BME280;73381;58.502;8.624;2024-02-15T02:06:28;100216.19;;;-0.57;88.14
83152;BME280;73381;58.502;8.624;2024-02-15T02:09:35;100313.63;;;-0.01;88.45
83152;BME280;73381;58.502;8.624;2024-02-15T02:12:40;100103.72;;;-1.28;88.07
83152;BME280;73381;58.502;8.624;2024-02-15T02:15:42;100319.75;;;-0.03;88.21
83152;BME280;73381;58.502;8.624;2024-02-15T02:18:44;100312.03;;;-0.05;88.41
83152;BME280;73381;58.502;8.624;2024-02-15T02:21:46;100308.66;;;-0.07;88.78
83152;BME280;73381;58.502;8.624;2024-02-15T02:28:53;100013.31;;;-2.12;88.29
83152;BME280;73381;58.502;8.624;2024-02-15T02:32:00;100298.69;;;-0.19;88.36
83152;BME280;73381;58.502;8.624;2024-02-15T02:35:03;100316.81;;;-0.17;89.10
83152;BME280;73381;58.502;8.624;2024-02-15T02:38:05;100313.25;;;-0.15;88.52
83152;BME280;73381;58.502;8.624;2024-02-15T02:41:08;100310.66;;;-0.15;89.66
83152;BME280;73381;58.502;8.624;2024-02-15T02:44:12;100300.41;;;-0.18;88.92
83152;BME280;73381;58.502;8.624;2024-02-15T02:50:25;100317.09;;;-0.25;89.91
83152;BME280;73381;58.502;8.624;2024-02-15T02:53:27;100323.19;;;-0.26;90.08
83152;BME280;73381;58.502;8.624;2024-02-15T02:56:29;100301.47;;;-0.23;90.33
83152;BME280;73381;58.502;8.624;2024-02-15T02:59:38;100314.44;;;-0.23;90.43
83152;BME280;73381;58.502;8.624;2024-02-15T03:02:41;100299.00;;;-0.26;90.90
83152;BME280;73381;58.502;8.624;2024-02-15T03:05:43;100310.47;;;-0.34;90.51
83152;BME280;73381;58.502;8.624;2024-02-15T03:08:45;100287.19;;;-0.35;89.99
83152;BME280;73381;58.502;8.624;2024-02-15T03:11:47;100309.16;;;-0.20;90.12
83152;BME280;73381;58.502;8.624;2024-02-15T03:14:50;100251.50;;;-0.53;89.83
83152;BME280;73381;58.502;8.624;2024-02-15T03:17:53;100298.16;;;-0.27;90.39
83152;BME280;73381;58.502;8.624;2024-02-15T03:20:55;100310.31;;;-0.29;90.37
83152;BME280;73381;58.502;8.624;2024-02-15T03:23:57;100313.00;;;-0.32;90.40
83152;BME280;73381;58.502;8.624;2024-02-15T03:26:59;100306.00;;;-0.30;90.54
83152;BME280;73381;58.502;8.624;2024-02-15T03:30:03;100312.06;;;-0.30;90.06
83152;BME280;73381;58.502;8.624;2024-02-15T03:33:04;100319.00;;;-0.30;90.48
83152;BME280;73381;58.502;8.624;2024-02-15T03:36:07;100308.47;;;-0.25;90.28
83152;BME280;73381;58.502;8.624;2024-02-15T03:39:09;100311.97;;;-0.26;89.90
83152;BME280;73381;58.502;8.624;2024-02-15T03:45:23;100313.75;;;-0.28;90.68
83152;BME280;73381;58.502;8.624;2024-02-15T03:48:25;100318.00;;;-0.26;90.46
83152;BME280;73381;58.502;8.624;2024-02-15T03:51:27;100276.53;;;-0.52;90.46
83152;BME280;73381;58.502;8.624;2024-02-15T03:54:29;100307.69;;;-0.29;90.94
83152;BME280;73381;58.502;8.624;2024-02-15T03:57:31;100307.63;;;-0.26;90.77
83152;BME280;73381;58.502;8.624;2024-02-15T04:00:35;100312.03;;;-0.28;90.63
83152;BME280;73381;58.502;8.624;2024-02-15T04:06:50;100307.69;;;-0.27;90.32
83152;BME280;73381;58.502;8.624;2024-02-15T04:09:58;100312.81;;;-0.26;90.71
83152;BME280;73381;58.502;8.624;2024-02-15T04:13:01;100304.31;;;-0.31;91.12
83152;BME280;73381;58.502;8.624;2024-02-15T04:16:04;100269.72;;;-0.55;90.44
83152;BME280;73381;58.502;8.624;2024-02-15T04:22:15;100171.69;;;-1.20;90.38
83152;BME280;73381;58.502;8.624;2024-02-15T04:25:22;100313.66;;;-0.25;91.06
83152;BME280;73381;58.502;8.624;2024-02-15T04:28:30;100320.53;;;-0.24;90.61
83152;BME280;73381;58.502;8.624;2024-02-15T04:31:33;100181.84;;;-1.14;90.25
83152;BME280;73381;58.502;8.624;2024-02-15T04:34:35;100326.47;;;-0.21;90.36
83152;BME280;73381;58.502;8.624;2024-02-15T04:37:45;100322.97;;;-0.20;90.37
83152;BME280;73381;58.502;8.624;2024-02-15T04:41:05;100340.34;;;-0.22;89.91
83152;BME280;73381;58.502;8.624;2024-02-15T04:47:27;99974.22;;;-2.29;90.11
83152;BME280;73381;58.502;8.624;2024-02-15T04:50:29;100328.03;;;-0.17;90.11
83152;BME280;73381;58.502;8.624;2024-02-15T04:53:31;100341.03;;;-0.17;89.83
83152;BME280;73381;58.502;8.624;2024-02-15T04:56:33;100338.38;;;-0.15;90.64
83152;BME280;73381;58.502;8.624;2024-02-15T04:59:35;100308.72;;;-0.33;90.50
83152;BME280;73381;58.502;8.624;2024-02-15T05:02:39;100335.81;;;-0.17;90.33
83152;BME280;73381;58.502;8.624;2024-02-15T05:05:45;100296.81;;;-0.39;90.29
83152;BME280;73381;58.502;8.624;2024-02-15T05:08:55;100336.47;;;-0.10;90.01
83152;BME280;73381;58.502;8.624;2024-02-15T05:11:56;100333.03;;;-0.11;90.30
83152;BME280;73381;58.502;8.624;2024-02-15T05:14:59;100245.47;;;-0.54;90.54
83152;BME280;73381;58.502;8.624;2024-02-15T05:18:03;100307.19;;;-0.14;90.57
83152;BME280;73381;58.502;8.624;2024-02-15T05:21:07;100308.06;;;-0.15;90.91
83152;BME280;73381;58.502;8.624;2024-02-15T05:24:10;100302.88;;;-0.15;90.54
83152;BME280;73381;58.502;8.624;2024-02-15T05:27:13;100307.41;;;-0.20;90.83
83152;BME280;73381;58.502;8.624;2024-02-15T05:30:15;100309.09;;;-0.19;91.34
83152;BME280;73381;58.502;8.624;2024-02-15T05:33:19;100303.16;;;-0.22;90.98
83152;BME280;73381;58.502;8.624;2024-02-15T05:36:26;100309.44;;;-0.28;91.47
83152;BME280;73381;58.502;8.624;2024-02-15T05:39:30;100033.56;;;-1.97;90.51
83152;BME280;73381;58.502;8.624;2024-02-15T05:42:32;100309.44;;;-0.28;91.21
83152;BME280;73381;58.502;8.624;2024-02-15T05:45:34;100298.81;;;-0.22;91.17
83152;BME280;73381;58.502;8.624;2024-02-15T05:48:38;100223.47;;;-0.67;90.57
83152;BME280;73381;58.502;8.624;2024-02-15T05:51:40;100297.25;;;-0.26;90.56
83152;BME280;73381;58.502;8.624;2024-02-15T05:54:44;100306.72;;;-0.25;90.86
83152;BME280;73381;58.502;8.624;2024-02-15T05:57:45;100311.25;;;-0.32;91.20
83152;BME280;73381;58.502;8.624;2024-02-15T06:00:48;100321.56;;;-0.30;91.18
83152;BME280;73381;58.502;8.624;2024-02-15T06:03:51;100286.63;;;-0.45;90.88
83152;BME280;73381;58.502;8.624;2024-02-15T06:06:53;100284.22;;;-0.49;91.00
83152;BME280;73381;58.502;8.624;2024-02-15T06:09:55;100330.28;;;-0.31;90.93
83152;BME280;73381;58.502;8.624;2024-02-15T06:13:02;100312.03;;;-0.28;91.06
83152;BME280;73381;58.502;8.624;2024-02-15T06:16:04;100314.56;;;-0.26;90.87
83152;BME280;73381;58.502;8.624;2024-02-15T06:19:15;100318.06;;;-0.27;91.31
83152;BME280;73381;58.502;8.624;2024-02-15T06:22:17;100327.63;;;-0.30;90.97
83152;BME280;73381;58.502;8.624;2024-02-15T06:25:21;100319.03;;;-0.32;91.09
83152;BME280;73381;58.502;8.624;2024-02-15T06:28:29;100281.84;;;-0.55;91.16
83152;BME280;73381;58.502;8.624;2024-02-15T06:31:33;100277.53;;;-0.56;91.41
83152;BME280;73381;58.502;8.624;2024-02-15T06:37:48;100323.56;;;-0.37;92.00
83152;BME280;73381;58.502;8.624;2024-02-15T06:40:54;100315.88;;;-0.40;92.15
83152;BME280;73381;58.502;8.624;2024-02-15T06:44:00;100315.03;;;-0.40;91.67
83152;BME280;73381;58.502;8.624;2024-02-15T06:47:01;100188.13;;;-1.21;91.70
83152;BME280;73381;58.502;8.624;2024-02-15T06:50:04;100310.84;;;-0.44;92.11
83152;BME280;73381;58.502;8.624;2024-02-15T06:53:09;100299.16;;;-0.56;91.84
83152;BME280;73381;58.502;8.624;2024-02-15T06:56:13;100276.28;;;-0.70;91.58
83152;BME280;73381;58.502;8.624;2024-02-15T06:59:16;100321.25;;;-0.46;92.09
83152;BME280;73381;58.502;8.624;2024-02-15T07:02:18;100311.00;;;-0.49;91.97
83152;BME280;73381;58.502;8.624;2024-02-15T07:05:20;100262.94;;;-0.84;92.45
83152;BME280;73381;58.502;8.624;2024-02-15T07:11:39;100024.00;;;-2.21;91.86
83152;BME280;73381;58.502;8.624;2024-02-15T07:14:42;100316.03;;;-0.44;92.37
83152;BME280;73381;58.502;8.624;2024-02-15T07:17:44;100163.47;;;-1.33;92.03
83152;BME280;73381;58.502;8.624;2024-02-15T07:20:46;100229.31;;;-1.13;91.83
83152;BME280;73381;58.502;8.624;2024-02-15T07:23:48;100272.00;;;-0.72;91.65
83152;BME280;73381;58.502;8.624;2024-02-15T07:26:52;100327.09;;;-0.39;91.94
83152;BME280;73381;58.502;8.624;2024-02-15T07:29:54;100327.91;;;-0.37;91.70
83152;BME280;73381;58.502;8.624;2024-02-15T07:32:56;100335.69;;;-0.37;91.50
83152;BME280;73381;58.502;8.624;2024-02-15T07:42:29;100122.34;;;-1.68;91.67
83152;BME280;73381;58.502;8.624;2024-02-15T07:45:32;100324.69;;;-0.45;92.21
83152;BME280;73381;58.502;8.624;2024-02-15T07:48:38;100339.00;;;-0.34;91.77
83152;BME280;73381;58.502;8.624;2024-02-15T07:54:51;100338.97;;;-0.32;91.67
83152;BME280;73381;58.502;8.624;2024-02-15T07:57:56;100333.75;;;-0.32;91.76
83152;BME280;73381;58.502;8.624;2024-02-15T08:01:01;100346.84;;;-0.35;91.66
83152;BME280;73381;58.502;8.624;2024-02-15T08:04:03;100342.44;;;-0.33;91.72
83152;BME280;73381;58.502;8.624;2024-02-15T08:07:05;100330.59;;;-0.40;91.92
83152;BME280;73381;58.502;8.624;2024-02-15T08:10:08;100335.78;;;-0.40;92.27
83152;BME280;73381;58.502;8.624;2024-02-15T08:13:11;100346.75;;;-0.32;91.98
83152;BME280;73381;58.502;8.624;2024-02-15T08:16:13;100300.91;;;-0.58;91.49
83152;BME280;73381;58.502;8.624;2024-02-15T08:22:36;100346.59;;;-0.27;91.57
83152;BME280;73381;58.502;8.624;2024-02-15T08:25:39;100219.22;;;-0.95;91.29
83152;BME280;73381;58.502;8.624;2024-02-15T08:28:42;100224.63;;;-1.02;90.96
83152;BME280;73381;58.502;8.624;2024-02-15T08:31:44;100319.81;;;-0.28;91.09
83152;BME280;73381;58.502;8.624;2024-02-15T08:34:45;100333.47;;;-0.23;90.76
83152;BME280;73381;58.502;8.624;2024-02-15T08:37:47;100331.78;;;-0.24;91.21
83152;BME280;73381;58.502;8.624;2024-02-15T08:40:50;100197.63;;;-0.95;91.57
83152;BME280;73381;58.502;8.624;2024-02-15T08:43:55;100317.16;;;-0.26;90.83
83152;BME280;73381;58.502;8.624;2024-02-15T08:46:58;100330.81;;;-0.21;91.24
83152;BME280;73381;58.502;8.624;2024-02-15T08:50:00;100338.28;;;-0.12;91.04
83152;BME280;73381;58.502;8.624;2024-02-15T08:53:02;100331.53;;;-0.18;90.87
83152;BME280;73381;58.502;8.624;2024-02-15T08:56:05;100234.31;;;-0.81;90.45
83152;BME280;73381;58.502;8.624;2024-02-15T08:59:12;100324.78;;;-0.22;90.84
83152;BME280;73381;58.502;8.624;2024-02-15T09:02:14;100336.53;;;-0.12;90.78
83152;BME280;73381;58.502;8.624;2024-02-15T09:05:15;100342.56;;;-0.11;90.62
83152;BME280;73381;58.502;8.624;2024-02-15T09:08:18;100339.06;;;-0.10;91.03
83152;BME280;73381;58.502;8.624;2024-02-15T09:11:21;100333.72;;;-0.06;90.43
83152;BME280;73381;58.502;8.624;2024-02-15T09:14:24;100336.47;;;-0.10;90.29
83152;BME280;73381;58.502;8.624;2024-02-15T09:17:26;100171.34;;;-1.09;90.70
83152;BME280;73381;58.502;8.624;2024-02-15T09:20:28;100339.75;;;-0.05;90.72
83152;BME280;73381;58.502;8.624;2024-02-15T09:23:30;100339.75;;;-0.05;91.00
83152;BME280;73381;58.502;8.624;2024-02-15T09:26:32;100330.91;;;0.01;90.36
83152;BME280;73381;58.502;8.624;2024-02-15T09:29:35;100331.75;;;0.01;90.49
83152;BME280;73381;58.502;8.624;2024-02-15T09:32:37;100333.50;;;0.01;90.50
83152;BME280;73381;58.502;8.624;2024-02-15T09:35:39;100335.19;;;0.02;90.08
83152;BME280;73381;58.502;8.624;2024-02-15T09:38:41;100332.59;;;0.02;90.32
83152;BME280;73381;58.502;8.624;2024-02-15T09:41:43;100339.25;;;0.09;90.71
83152;BME280;73381;58.502;8.624;2024-02-15T09:44:47;100278.31;;;-0.30;90.43
83152;BME280;73381;58.502;8.624;2024-02-15T09:47:49;100325.66;;;0.02;90.17
83152;BME280;73381;58.502;8.624;2024-02-15T09:50:53;100323.69;;;0.09;90.29
83152;BME280;73381;58.502;8.624;2024-02-15T09:53:59;100321.03;;;0.10;90.27
83152;BME280;73381;58.502;8.624;2024-02-15T10:00:25;100326.78;;;0.18;90.10
83152;BME280;73381;58.502;8.624;2024-02-15T10:03:27;100327.69;;;0.17;89.73
83152;BME280;73381;58.502;8.624;2024-02-15T10:06:29;100331.16;;;0.18;89.55
83152;BME280;73381;58.502;8.624;2024-02-15T10:12:49;100338.81;;;0.21;89.88
83152;BME280;73381;58.502;8.624;2024-02-15T10:15:52;100337.91;;;0.22;89.51
83152;BME280;73381;58.502;8.624;2024-02-15T10:22:24;100203.84;;;-0.51;89.48
83152;BME280;73381;58.502;8.624;2024-02-15T10:28:40;100331.50;;;0.32;89.85
83152;BME280;73381;58.502;8.624;2024-02-15T10:31:53;100326.91;;;0.39;89.78
83152;BME280;73381;58.502;8.624;2024-02-15T10:38:10;100312.94;;;0.41;89.15
83152;BME280;73381;58.502;8.624;2024-02-15T10:41:13;100280.13;;;0.17;89.01
83152;BME280;73381;58.502;8.624;2024-02-15T10:44:17;100316.03;;;0.29;89.83
83152;BME280;73381;58.502;8.624;2024-02-15T10:47:21;100302.34;;;0.24;89.60
83152;BME280;73381;58.502;8.624;2024-02-15T10:50:23;100300.81;;;0.18;89.72
83152;BME280;73381;58.502;8.624;2024-02-15T10:53:26;100307.00;;;0.16;90.42
83152;BME280;73381;58.502;8.624;2024-02-15T10:56:34;100306.88;;;0.19;89.80
83152;BME280;73381;58.502;8.624;2024-02-15T11:09:22;100281.34;;;0.30;89.25
83152;BME280;73381;58.502;8.624;2024-02-15T11:12:25;100285.53;;;0.34;89.98
83152;BME280;73381;58.502;8.624;2024-02-15T11:15:44;100277.91;;;0.29;90.12
83152;BME280;73381;58.502;8.624;2024-02-15T11:19:04;100274.56;;;0.26;89.32
83152;BME280;73381;58.502;8.624;2024-02-15T11:22:08;100277.16;;;0.26;89.72
83152;BME280;73381;58.502;8.624;2024-02-15T11:25:11;100189.81;;;-0.22;89.66
83152;BME280;73381;58.502;8.624;2024-02-15T11:28:38;100270.06;;;0.31;90.06
83152;BME280;73381;58.502;8.624;2024-02-15T11:31:53;100273.56;;;0.30;89.95
83152;BME280;73381;58.502;8.624;2024-02-15T11:35:02;100276.16;;;0.30;89.57
83152;BME280;73381;58.502;8.624;2024-02-15T11:41:32;100265.91;;;0.25;89.94
83152;BME280;73381;58.502;8.624;2024-02-15T11:44:34;100230.59;;;-0.02;89.18
83152;BME280;73381;58.502;8.624;2024-02-15T11:47:38;100276.88;;;0.34;89.29
83152;BME280;73381;58.502;8.624;2024-02-15T11:50:40;100252.03;;;0.26;89.17
83152;BME280;73381;58.502;8.624;2024-02-15T11:53:43;100266.50;;;0.34;89.10
83152;BME280;73381;58.502;8.624;2024-02-15T11:56:52;100262.19;;;0.33;88.97
83152;BME280;73381;58.502;8.624;2024-02-15T11:59:55;100256.22;;;0.31;89.27
83152;BME280;73381;58.502;8.624;2024-02-15T12:02:59;100271.56;;;0.37;89.14
83152;BME280;73381;58.502;8.624;2024-02-15T12:06:02;100261.22;;;0.35;89.22
83152;BME280;73381;58.502;8.624;2024-02-15T12:09:04;100253.50;;;0.34;89.18
83152;BME280;73381;58.502;8.624;2024-02-15T12:12:09;100256.09;;;0.34;89.36
83152;BME280;73381;58.502;8.624;2024-02-15T12:15:11;100231.94;;;0.32;88.34
83152;BME280;73381;58.502;8.624;2024-02-15T12:18:14;100205.03;;;0.11;89.22
83152;BME280;73381;58.502;8.624;2024-02-15T12:21:18;100121.69;;;-0.50;88.53
83152;BME280;73381;58.502;8.624;2024-02-15T12:24:21;100243.25;;;0.31;89.60
83152;BME280;73381;58.502;8.624;2024-02-15T12:27:24;100249.50;;;0.25;89.46
83152;BME280;73381;58.502;8.624;2024-02-15T12:30:32;100235.59;;;0.26;89.47
83152;BME280;73381;58.502;8.624;2024-02-15T12:33:34;100244.16;;;0.29;89.22
83152;BME280;73381;58.502;8.624;2024-02-15T12:36:36;100080.66;;;-0.63;89.60
83152;BME280;73381;58.502;8.624;2024-02-15T12:39:39;100114.59;;;-0.45;89.18
83152;BME280;73381;58.502;8.624;2024-02-15T12:42:42;100195.59;;;0.08;89.11
83152;BME280;73381;58.502;8.624;2024-02-15T12:45:44;100087.41;;;-0.58;89.09
83152;BME280;73381;58.502;8.624;2024-02-15T12:48:46;100225.34;;;0.23;89.18
83152;BME280;73381;58.502;8.624;2024-02-15T12:51:51;100230.72;;;0.18;89.51
83152;BME280;73381;58.502;8.624;2024-02-15T12:55:06;100224.91;;;0.12;89.05
83152;BME280;73381;58.502;8.624;2024-02-15T12:58:13;100213.84;;;0.07;89.52
83152;BME280;73381;58.502;8.624;2024-02-15T13:01:15;100218.97;;;0.08;89.81
83152;BME280;73381;58.502;8.624;2024-02-15T13:04:24;100201.13;;;0.01;89.86
83152;BME280;73381;58.502;8.624;2024-02-15T13:07:26;100212.94;;;0.08;89.93
83152;BME280;73381;58.502;8.624;2024-02-15T13:10:29;100200.69;;;0.11;90.15
83152;BME280;73381;58.502;8.624;2024-02-15T13:13:32;100195.34;;;0.16;89.78
83152;BME280;73381;58.502;8.624;2024-02-15T13:16:34;100197.09;;;0.15;89.59
83152;BME280;73381;58.502;8.624;2024-02-15T13:19:36;100185.88;;;0.13;89.91
83152;BME280;73381;58.502;8.624;2024-02-15T13:22:38;100180.75;;;0.12;89.66
83152;BME280;73381;58.502;8.624;2024-02-15T13:25:41;100060.53;;;-0.56;89.39
83152;BME280;73381;58.502;8.624;2024-02-15T13:28:44;100178.84;;;0.17;89.63
83152;BME280;73381;58.502;8.624;2024-02-15T13:31:46;100177.25;;;0.13;89.48
83152;BME280;73381;58.502;8.624;2024-02-15T13:34:48;100169.38;;;0.16;89.44
83152;BME280;73381;58.502;8.624;2024-02-15T13:47:23;100159.97;;;0.12;89.75
83152;BME280;73381;58.502;8.624;2024-02-15T13:53:38;100149.59;;;0.12;89.80
83152;BME280;73381;58.502;8.624;2024-02-15T13:56:40;100097.19;;;-0.20;89.55
83152;BME280;73381;58.502;8.624;2024-02-15T13:59:42;100156.47;;;0.13;89.85
83152;BME280;73381;58.502;8.624;2024-02-15T14:02:47;100150.50;;;0.11;89.43
83152;BME280;73381;58.502;8.624;2024-02-15T14:05:49;100025.28;;;-0.62;89.36
83152;BME280;73381;58.502;8.624;2024-02-15T14:08:51;100141.81;;;0.12;89.52
83152;BME280;73381;58.502;8.624;2024-02-15T14:15:12;100141.94;;;0.09;89.64
83152;BME280;73381;58.502;8.624;2024-02-15T14:18:16;99767.97;;;-2.23;89.18
83152;BME280;73381;58.502;8.624;2024-02-15T14:21:18;100136.88;;;0.06;89.71
83152;BME280;73381;58.502;8.624;2024-02-15T14:24:20;100137.66;;;0.08;90.09
83152;BME280;73381;58.502;8.624;2024-02-15T14:27:24;100140.31;;;0.06;89.50
83152;BME280;73381;58.502;8.624;2024-02-15T14:30:28;100115.59;;;-0.04;89.74
83152;BME280;73381;58.502;8.624;2024-02-15T14:36:48;100106.53;;;-0.16;89.88
83152;BME280;73381;58.502;8.624;2024-02-15T14:39:50;100130.97;;;0.02;89.92
83152;BME280;73381;58.502;8.624;2024-02-15T14:42:52;99868.69;;;-1.70;89.52
83152;BME280;73381;58.502;8.624;2024-02-15T14:46:00;100032.41;;;-0.67;90.06
83152;BME280;73381;58.502;8.624;2024-02-15T14:49:04;100011.19;;;-0.54;90.50
83152;BME280;73381;58.502;8.624;2024-02-15T14:58:50;100103.53;;;-0.05;90.93
83152;BME280;73381;58.502;8.624;2024-02-15T15:01:52;99766.59;;;-2.08;90.62
83152;BME280;73381;58.502;8.624;2024-02-15T15:11:16;100106.19;;;-0.07;91.06
83152;BME280;73381;58.502;8.624;2024-02-15T15:40:18;99823.97;;;-1.97;90.61
83152;BME280;73381;58.502;8.624;2024-02-15T15:43:20;99727.53;;;-2.49;90.77
83152;BME280;73381;58.502;8.624;2024-02-15T16:52:11;99491.22;;;-3.35;91.21
83152;BME280;73381;58.502;8.624;2024-02-15T17:25:04;99995.84;;;-0.17;90.62
83152;BME280;73381;58.502;8.624;2024-02-15T17:31:33;99983.22;;;-0.04;91.68
83152;BME280;73381;58.502;8.624;2024-02-15T17:34:34;99797.78;;;-1.21;91.36
83152;BME280;73381;58.502;8.624;2024-02-15T17:37:38;99793.44;;;-1.20;91.28
83152;BME280;73381;58.502;8.624;2024-02-15T17:53:29;99897.16;;;-0.56;91.55
83152;BME280;73381;58.502;8.624;2024-02-15T18:02:46;99966.03;;;-0.07;91.63
83152;BME280;73381;58.502;8.624;2024-02-15T18:12:29;99972.53;;;0.04;91.60
83152;BME280;73381;58.502;8.624;2024-02-15T18:15:31;99827.34;;;-0.82;91.09
83152;BME280;73381;58.502;8.624;2024-02-15T18:21:40;99957.88;;;0.03;91.90
83152;BME280;73381;58.502;8.624;2024-02-15T18:24:42;99729.69;;;-1.46;91.40
83152;BME280;73381;58.502;8.624;2024-02-15T18:27:45;99969.81;;;0.07;91.68
83152;BME280;73381;58.502;8.624;2024-02-15T18:37:17;99942.22;;;0.04;91.33
83152;BME280;73381;58.502;8.624;2024-02-15T18:40:19;99819.72;;;-0.65;91.34
83152;BME280;73381;58.502;8.624;2024-02-15T18:43:27;99929.19;;;0.06;91.54
83152;BME280;73381;58.502;8.624;2024-02-15T18:46:29;99927.50;;;0.05;91.42
83152;BME280;73381;58.502;8.624;2024-02-15T18:52:57;99912.75;;;0.05;92.35
83152;BME280;73381;58.502;8.624;2024-02-15T18:55:59;99913.75;;;0.03;92.60
83152;BME280;73381;58.502;8.624;2024-02-15T18:59:09;99911.16;;;0.03;92.33
83152;BME280;73381;58.502;8.624;2024-02-15T19:02:11;99894.00;;;-0.02;92.22
83152;BME280;73381;58.502;8.624;2024-02-15T19:08:22;99782.44;;;-0.63;91.35
83152;BME280;73381;58.502;8.624;2024-02-15T19:11:24;99887.50;;;0.09;91.71
83152;BME280;73381;58.502;8.624;2024-02-15T19:24:26;99874.66;;;0.06;91.82
83152;BME280;73381;58.502;8.624;2024-02-15T19:27:28;99839.75;;;-0.08;91.80
83152;BME280;73381;58.502;8.624;2024-02-15T19:30:30;99867.72;;;0.06;91.86
83152;BME280;73381;58.502;8.624;2024-02-15T19:33:32;99871.78;;;0.12;92.06
83152;BME280;73381;58.502;8.624;2024-02-15T19:36:54;99864.22;;;0.07;91.87
83152;BME280;73381;58.502;8.624;2024-02-15T19:40:11;99824.34;;;-0.11;91.77
83152;BME280;73381;58.502;8.624;2024-02-15T19:46:33;99436.66;;;-2.37;91.08
83152;BME280;73381;58.502;8.624;2024-02-15T19:49:37;99857.25;;;0.08;91.80
83152;BME280;73381;58.502;8.624;2024-02-15T19:52:39;99837.09;;;-0.06;92.06
83152;BME280;73381;58.502;8.624;2024-02-15T20:02:00;99829.00;;;0.02;91.40
83152;BME280;73381;58.502;8.624;2024-02-15T20:14:58;99773.69;;;-0.01;92.22
83152;BME280;73381;58.502;8.624;2024-02-15T20:18:02;99749.25;;;-0.15;91.79
83152;BME280;73381;58.502;8.624;2024-02-15T20:21:04;99788.09;;;0.07;91.82
83152;BME280;73381;58.502;8.624;2024-02-15T20:24:06;99794.25;;;0.04;91.89
83152;BME280;73381;58.502;8.624;2024-02-15T20:30:27;99742.97;;;-0.10;91.76
83152;BME280;73381;58.502;8.624;2024-02-15T20:33:31;99758.84;;;0.03;91.30
83152;BME280;73381;58.502;8.624;2024-02-15T20:36:33;99748.31;;;0.06;92.08
83152;BME280;73381;58.502;8.624;2024-02-15T20:39:35;99735.41;;;0.05;91.32
83152;BME280;73381;58.502;8.624;2024-02-15T20:42:37;99716.03;;;-0.07;91.89
83152;BME280;73381;58.502;8.624;2024-02-15T20:45:38;99739.75;;;0.04;91.69
83152;BME280;73381;58.502;8.624;2024-02-15T20:52:00;99690.91;;;-0.07;91.30
83152;BME280;73381;58.502;8.624;2024-02-15T20:58:06;99732.03;;;0.03;91.99
83152;BME280;73381;58.502;8.624;2024-02-15T21:01:08;99686.81;;;-0.31;91.82
83152;BME280;73381;58.502;8.624;2024-02-15T21:04:10;99753.44;;;0.08;91.66
83152;BME280;73381;58.502;8.624;2024-02-15T21:13:37;99726.28;;;0.15;91.86
83152;BME280;73381;58.502;8.624;2024-02-15T21:16:39;99700.81;;;0.04;91.77
83152;BME280;73381;58.502;8.624;2024-02-15T21:19:41;99557.94;;;-0.87;91.41
83152;BME280;73381;58.502;8.624;2024-02-15T21:22:45;99708.31;;;0.10;92.18
83152;BME280;73381;58.502;8.624;2024-02-15T21:25:46;99702.28;;;0.10;91.82
83152;BME280;73381;58.502;8.624;2024-02-15T21:28:50;99664.47;;;-0.15;91.92
83152;BME280;73381;58.502;8.624;2024-02-15T21:31:52;99695.41;;;0.09;91.37
83152;BME280;73381;58.502;8.624;2024-02-15T21:34:57;99680.50;;;0.12;91.46
83152;BME280;73381;58.502;8.624;2024-02-15T21:41:19;99679.06;;;0.07;92.03